Details From PATG - TOGIAK
To PAQH - Quinhagak
Flight Number -
Tags generated
Created
Modified
Stats Distance 63 nm / 116 km
Max Altitude 300 ft / 91 m
Waypoints 3
Social Downloads 0
Likes 0
Share VATSIM

Download

Looking for another format? Having issues loading an existing format? Contact us
Advertisement - Login to hide

Notes

Basic altitude profile: - Ascent Rate: 2500ft/min - Ascent Speed: 250kts - Cruise Altitude: 35000ft - Cruise Speed: 420kts - Descent Rate: 1500ft/min - Descent Speed: 250kts Options: - Use NATs: yes - Use PACOTS: yes - Use low airways: yes - Use high airways: yes

Route

PATG TOG PAQH

ID Type Via Altitude Latitude Longitude Leg Dist Tot Dist Heading (true) Name
O PATG APT - 0 ft / 0 m 59.05424˚ -160.39361˚ - 0 nm - TOGIAK
TOG NDB - 300 ft / 91 m 59.06408˚ -160.37408˚ 0 nm 0 nm 46° / 46° TOGIAK NDB
O PAQH APT - 0 ft / 0 m 59.75701˚ -161.87948˚ 62 nm 62 nm 313° / 311° Quinhagak

Altitude Profile

Advertisement - Login to hide

PATG

Details ICAO PATG (TOG)
Name TOGIAK
Region USA (Alaska)
Timezone Unknown (UTC+0.0)
Stats Elevation 21 ft / 6 m (AMSL)
Location 59.054237° -160.393610°
Runways 2
Magnetic Variation 11.983° E

METAR

PATG 162156Z AUTO 09011KT 10SM OVC047 01/00 A2907 RMK AO2 SLP938 T00060000 FZRANO

Decode

TAF

Not found

Departure Runways

ID Width Length Bearing (true) Bearing (mag) Surface Threshold Offset Overrun Length
03 98 ft / 30 m 4,217 ft / 1,285 m 45.79° 33.81° Gravel 0 ft / 0 m 300 ft / 91 m
10 49 ft / 15 m 1,118 ft / 341 m 111.27° 99.29° Gravel 0 ft / 0 m 0 ft / 0 m
21 98 ft / 30 m 4,217 ft / 1,285 m 225.80° 213.82° Gravel 0 ft / 0 m 300 ft / 91 m
28 49 ft / 15 m 1,118 ft / 341 m 291.27° 279.29° Gravel 0 ft / 0 m 0 ft / 0 m

PAQH

Details ICAO PAQH (KWN)
Name Quinhagak
Region USA (Alaska)
Timezone America/Anchorage (UTC-9.0)
Stats Elevation 10 ft / 3 m (AMSL)
Location 59.757007° -161.879479°
Runways 1
Magnetic Variation 11.399° E

METAR

PAQH 162156Z AUTO 12009G18KT 10SM OVC021 01/00 A2902 RMK AO2 SLP826 T00110000 PWINO FZRANO $

Decode

TAF

Not found

Destination Runways

ID Width Length Bearing (true) Bearing (mag) Surface Threshold Offset Overrun Length
04 59 ft / 18 m 2,602 ft / 793 m 57.99° 46.59° Gravel 0 ft / 0 m 0 ft / 0 m
22 59 ft / 18 m 2,602 ft / 793 m 238.01° 226.61° Gravel 0 ft / 0 m 0 ft / 0 m